createdAt,value
2022-10-26T00:04:30.259Z,98479.4
2022-10-26T00:10:13.324Z,98492.2
2022-10-26T00:17:11.666Z,98488.1
2022-10-26T00:23:04.435Z,98497.2
2022-10-26T00:28:47.534Z,98506
2022-10-26T00:34:31.551Z,98504.9
2022-10-26T00:40:06.906Z,98515
2022-10-26T00:46:01.605Z,98502.3
2022-10-26T00:51:57.098Z,98505.7
2022-10-26T00:57:33.418Z,98511.1
2022-10-26T01:03:09.984Z,98519.1
2022-10-26T01:09:06.085Z,98504.2
2022-10-26T01:14:40.782Z,98505.9
2022-10-26T01:21:19.425Z,98521.8
2022-10-26T01:27:00.461Z,98527.5
2022-10-26T01:33:36.817Z,98525.8
2022-10-26T01:39:32.101Z,98533.9
2022-10-26T01:45:15.918Z,98532.9
2022-10-26T01:51:17.933Z,98532
2022-10-26T01:56:53.049Z,98536.5
2022-10-26T02:02:31.097Z,98534.1
2022-10-26T02:08:19.900Z,98532.3
2022-10-26T02:14:09.901Z,98539.3
2022-10-26T02:19:50.786Z,98540.5
2022-10-26T02:25:27.007Z,98544.4
2022-10-26T02:31:01.925Z,98539.3
2022-10-26T02:36:46.886Z,98538.1
2022-10-26T02:42:21.776Z,98546
2022-10-26T02:47:56.928Z,98538.4
2022-10-26T02:53:39.004Z,98528.5
2022-10-26T02:59:37.330Z,98534.7
2022-10-26T03:05:31.545Z,98534.8
2022-10-26T03:11:08.590Z,98536.3
2022-10-26T03:16:58.843Z,98537.5
2022-10-26T03:22:34.538Z,98537
2022-10-26T03:28:30.225Z,98535.4
2022-10-26T03:34:05.309Z,98533.3
2022-10-26T03:39:49.000Z,98533.1
2022-10-26T03:45:26.614Z,98532
2022-10-26T03:51:06.056Z,98527.6
2022-10-26T03:56:55.770Z,98526.6
2022-10-26T04:02:30.649Z,98527.7
2022-10-26T04:08:08.606Z,98526.1
2022-10-26T04:13:49.051Z,98528.7
2022-10-26T04:19:47.562Z,98540.2
2022-10-26T04:25:34.255Z,98547.4
2022-10-26T04:31:09.281Z,98554.3
2022-10-26T04:36:44.356Z,98554.3
2022-10-26T04:42:52.305Z,98552.8
2022-10-26T04:48:28.874Z,98553.9
2022-10-26T04:54:24.532Z,98539.2
2022-10-26T05:00:08.529Z,98537.6
2022-10-26T05:05:43.482Z,98554.9
2022-10-26T05:11:26.401Z,98557.3
2022-10-26T05:17:01.529Z,98564.5
2022-10-26T05:22:39.035Z,98574
2022-10-26T05:28:20.698Z,98575.1
2022-10-26T05:34:42.304Z,98580.4
2022-10-26T05:40:28.973Z,98583.8
2022-10-26T05:46:04.306Z,98575.5
2022-10-26T05:51:39.060Z,98578.8
2022-10-26T05:57:14.169Z,98584.8
2022-10-26T06:02:54.021Z,98584.4
2022-10-26T06:08:31.303Z,98589
2022-10-26T06:14:34.569Z,98574.7
2022-10-26T06:20:10.181Z,98573.4
2022-10-26T06:25:45.256Z,98571.2
2022-10-26T06:31:20.409Z,98579.8
2022-10-26T06:37:08.469Z,98582.8
2022-10-26T06:42:47.718Z,98575.6
2022-10-26T06:48:23.524Z,98589.1
2022-10-26T06:54:44.741Z,98601.6
2022-10-26T07:00:20.822Z,98613.1
2022-10-26T07:06:08.887Z,98622.7
2022-10-26T07:11:53.570Z,98648.4
2022-10-26T07:17:43.099Z,98644.7
2022-10-26T07:29:18.818Z,98658.4
2022-10-26T07:35:01.065Z,98648.3
2022-10-26T07:40:44.834Z,98649.7
2022-10-26T07:46:23.655Z,98652.2
2022-10-26T07:51:58.491Z,98660.6
2022-10-26T07:57:42.104Z,98670.5
2022-10-26T08:04:00.309Z,98672.6
2022-10-26T08:09:35.730Z,98679.3
2022-10-26T08:15:25.529Z,98689.4
2022-10-26T08:21:21.543Z,98692.8
2022-10-26T08:27:40.957Z,98700.4
2022-10-26T08:33:16.833Z,98700.9
2022-10-26T08:38:54.574Z,98699.7
2022-10-26T08:44:30.051Z,98705.2
2022-10-26T08:50:05.911Z,98705.7
2022-10-26T08:55:47.931Z,98708.2
2022-10-26T09:01:23.472Z,98711.1
2022-10-26T09:07:00.910Z,98695.4
2022-10-26T09:12:37.132Z,98704.3
2022-10-26T09:18:28.733Z,98704.4
2022-10-26T09:24:03.984Z,98712.9
2022-10-26T09:29:55.952Z,98722
2022-10-26T09:35:39.060Z,98725.7
2022-10-26T09:41:13.935Z,98723.6
2022-10-26T09:46:58.939Z,98723.2
2022-10-26T09:52:38.076Z,98731.2
2022-10-26T09:58:25.682Z,98725.8
2022-10-26T10:04:14.074Z,98733.7
2022-10-26T10:10:03.233Z,98732.3
2022-10-26T10:15:45.180Z,98739.4
2022-10-26T10:21:24.647Z,98750
2022-10-26T10:27:10.211Z,98740.8
2022-10-26T10:32:47.327Z,98742.8
2022-10-26T10:39:12.124Z,98756.7
2022-10-26T10:45:23.597Z,98754.8
2022-10-26T10:50:59.906Z,98753.6
2022-10-26T10:56:53.012Z,98754.8
2022-10-26T11:02:31.014Z,98752.1
2022-10-26T11:08:06.873Z,98746.8
2022-10-26T11:13:49.720Z,98754.8
2022-10-26T11:19:34.162Z,98750.3
2022-10-26T11:25:15.803Z,98752.2
2022-10-26T11:30:51.722Z,98761.3
2022-10-26T11:36:26.857Z,98757.8
2022-10-26T11:42:02.774Z,98753.4
2022-10-26T11:47:44.066Z,98739.3
2022-10-26T11:53:39.236Z,98734.6
2022-10-26T11:59:15.019Z,98725.4
2022-10-26T12:04:53.325Z,98717.6
2022-10-26T12:10:28.307Z,98719
2022-10-26T12:16:05.372Z,98718.4
2022-10-26T12:21:49.353Z,98726.5
2022-10-26T12:27:37.726Z,98725
2022-10-26T12:33:13.161Z,98714.6
2022-10-26T12:38:48.754Z,98696.7
2022-10-26T12:44:35.917Z,98702.5
2022-10-26T12:50:32.225Z,98706.6
2022-10-26T12:56:11.802Z,98707.4
2022-10-26T13:01:55.478Z,98704.2
2022-10-26T13:07:38.981Z,98702.7
2022-10-26T13:13:14.633Z,98696.7
2022-10-26T13:18:49.841Z,98700.2
2022-10-26T13:24:33.805Z,98707.9
2022-10-26T13:30:17.989Z,98710
2022-10-26T13:35:55.959Z,98715.7
2022-10-26T13:41:32.067Z,98714.6
2022-10-26T13:47:20.294Z,98712.1
2022-10-26T13:53:08.496Z,98699.3
2022-10-26T13:58:43.490Z,98707.6
2022-10-26T14:04:21.239Z,98710.3
2022-10-26T14:09:56.218Z,98707.8
2022-10-26T14:15:53.551Z,98707.3
2022-10-26T14:21:33.044Z,98696.9
2022-10-26T14:27:39.126Z,98689.2
2022-10-26T14:33:30.180Z,98686.3
2022-10-26T14:39:17.469Z,98683.9
2022-10-26T14:45:50.255Z,98686.7
2022-10-26T14:51:27.564Z,98680.1
2022-10-26T14:57:08.172Z,98680.6
2022-10-26T15:02:44.128Z,98675.4
2022-10-26T15:08:57.135Z,98676.4
2022-10-26T15:14:51.362Z,98672.9
2022-10-26T15:20:26.443Z,98670.1
2022-10-26T15:26:08.120Z,98670.4
2022-10-26T15:31:43.019Z,98670.7
2022-10-26T15:37:21.922Z,98679.5
2022-10-26T15:43:04.307Z,98688.9
2022-10-26T15:54:31.868Z,98697.6
2022-10-26T16:00:22.848Z,98704.7
2022-10-26T16:06:33.887Z,98707.7
2022-10-26T16:12:18.726Z,98712
2022-10-26T16:18:32.564Z,98708.3
2022-10-26T16:24:09.715Z,98706.3
2022-10-26T16:29:44.658Z,98712.2
2022-10-26T16:35:25.187Z,98701
2022-10-26T16:42:33.507Z,98698.5
2022-10-26T16:48:08.835Z,98708.3
2022-10-26T16:54:08.780Z,98713.1
2022-10-26T16:59:50.543Z,98711
2022-10-26T17:05:29.520Z,98709.9
2022-10-26T17:12:12.264Z,98726.5
2022-10-26T17:17:58.008Z,98736.5
2022-10-26T17:23:52.917Z,98749.5
2022-10-26T17:29:41.092Z,98752.9
2022-10-26T17:35:18.742Z,98753.4
2022-10-26T17:41:02.736Z,98758.3
2022-10-26T17:46:40.104Z,98765.9
2022-10-26T17:52:15.118Z,98771.9
2022-10-26T17:58:05.114Z,98779.3
2022-10-26T18:03:50.381Z,98788.3
2022-10-26T18:10:41.784Z,98799.5
2022-10-26T18:16:36.617Z,98810.3
2022-10-26T18:22:36.282Z,98826.2
2022-10-26T18:30:03.339Z,98836.7
2022-10-26T18:35:43.091Z,98840.2
2022-10-26T18:41:45.719Z,98838.7
2022-10-26T18:47:20.792Z,98848.3
2022-10-26T18:52:56.537Z,98847.7
2022-10-26T18:58:38.858Z,98853.8
2022-10-26T19:04:22.008Z,98868.4
2022-10-26T19:09:58.568Z,98871.5
2022-10-26T19:15:58.889Z,98867.4
2022-10-26T19:21:51.655Z,98874.1
2022-10-26T19:27:29.413Z,98869.7
2022-10-26T19:33:10.005Z,98874.6
2022-10-26T19:38:46.726Z,98866.6
2022-10-26T19:44:36.579Z,98858.6
2022-10-26T19:50:11.557Z,98866.6
2022-10-26T19:55:47.382Z,98861.3
2022-10-26T20:01:41.054Z,98855.8
2022-10-26T20:07:16.707Z,98853.6
2022-10-26T20:13:04.194Z,98858.3
2022-10-26T20:18:49.319Z,98861.3
2022-10-26T20:24:26.631Z,98850.9
2022-10-26T20:30:01.660Z,98857.3
2022-10-26T20:35:54.122Z,98859.8
2022-10-26T20:42:00.924Z,98856.8
2022-10-26T20:47:33.680Z,98851.5
2022-10-26T20:53:11.676Z,98854.7
2022-10-26T20:58:49.681Z,98855.6
2022-10-26T21:04:48.703Z,98851.8
2022-10-26T21:10:28.841Z,98864.3
2022-10-26T21:16:15.394Z,98864.9
2022-10-26T21:21:50.523Z,98867.6
2022-10-26T21:27:31.151Z,98876.9
2022-10-26T21:33:08.873Z,98882
2022-10-26T21:38:44.030Z,98886.4
2022-10-26T21:44:42.448Z,98880.9
2022-10-26T21:50:28.744Z,98875.2
2022-10-26T21:56:04.675Z,98877.3
2022-10-26T22:01:46.820Z,98866.8
2022-10-26T22:07:22.980Z,98862
2022-10-26T22:13:20.981Z,98861.5
2022-10-26T22:19:05.930Z,98860.1
2022-10-26T22:24:40.700Z,98869
2022-10-26T22:30:15.571Z,98867.4
2022-10-26T22:35:50.269Z,98860.3
2022-10-26T22:41:51.222Z,98850
2022-10-26T22:47:26.670Z,98849.6
2022-10-26T22:53:11.592Z,98844.1
2022-10-26T22:58:51.503Z,98836.3
2022-10-26T23:04:37.423Z,98828.5
2022-10-26T23:10:13.805Z,98823.6
2022-10-26T23:15:58.305Z,98815.2
2022-10-26T23:21:41.184Z,98816.2
2022-10-26T23:27:22.491Z,98807.5
2022-10-26T23:33:04.343Z,98813
2022-10-26T23:38:48.177Z,98820.4
2022-10-26T23:44:23.329Z,98816
2022-10-26T23:50:19.045Z,98811.1
2022-10-26T23:56:03.566Z,98809.4
